createdAt,value
2024-01-15T00:00:25.318Z,89.33
2024-01-15T00:00:57.250Z,90.23
2024-01-15T00:01:29.186Z,90.10
2024-01-15T00:02:01.003Z,89.77
2024-01-15T00:02:32.809Z,90.57
2024-01-15T00:03:05.039Z,91.03
2024-01-15T00:03:37.001Z,89.57
2024-01-15T00:04:08.964Z,90.03
2024-01-15T00:04:41.678Z,89.00
2024-01-15T00:05:13.514Z,89.50
2024-01-15T00:05:45.360Z,88.37
2024-01-15T00:06:17.320Z,89.10
2024-01-15T00:06:50.339Z,90.27
2024-01-15T00:07:22.304Z,88.77
2024-01-15T00:07:54.129Z,89.00
2024-01-15T00:08:25.976Z,89.73
2024-01-15T00:08:59.364Z,89.50
2024-01-15T00:09:31.286Z,92.43
2024-01-15T00:10:03.629Z,92.73
2024-01-15T00:10:35.448Z,93.03
2024-01-15T00:11:07.252Z,89.07
2024-01-15T00:11:39.116Z,89.37
2024-01-15T00:12:11.026Z,89.20
2024-01-15T00:12:43.080Z,87.93
2024-01-15T00:13:14.935Z,84.27
2024-01-15T00:13:47.200Z,85.00
2024-01-15T00:14:21.434Z,85.60
2024-01-15T00:14:53.424Z,85.80
2024-01-15T00:15:25.250Z,86.30
2024-01-15T00:15:57.330Z,85.90
2024-01-15T00:16:29.169Z,84.03
2024-01-15T00:17:00.973Z,84.20
2024-01-15T00:17:32.813Z,87.43
2024-01-15T00:18:05.107Z,88.80
2024-01-15T00:18:37.249Z,88.80
2024-01-15T00:19:09.279Z,86.63
2024-01-15T00:19:41.371Z,87.73
2024-01-15T00:20:13.833Z,90.67
2024-01-15T00:20:45.619Z,98.33
2024-01-15T00:21:17.479Z,100.27
2024-01-15T00:21:49.484Z,101.90
2024-01-15T00:22:21.411Z,99.47
2024-01-15T00:22:53.190Z,100.63
2024-01-15T00:23:24.988Z,102.23
2024-01-15T00:23:56.781Z,102.53
2024-01-15T00:24:28.639Z,102.90
2024-01-15T00:25:00.456Z,100.23
2024-01-15T00:25:32.465Z,97.10
2024-01-15T00:26:04.849Z,98.57
2024-01-15T00:26:37.527Z,96.37
2024-01-15T00:27:09.938Z,97.93
2024-01-15T00:27:42.024Z,96.20
2024-01-15T00:28:13.839Z,96.53
2024-01-15T00:28:45.677Z,96.83
2024-01-15T00:29:17.540Z,98.60
2024-01-15T00:29:49.372Z,95.73
2024-01-15T00:30:21.634Z,97.53
2024-01-15T00:30:53.721Z,96.27
2024-01-15T00:31:25.663Z,93.53
2024-01-15T00:31:57.536Z,94.03
2024-01-15T00:32:29.433Z,93.00
2024-01-15T00:33:01.351Z,94.43
2024-01-15T00:33:33.420Z,94.03
2024-01-15T00:34:05.404Z,94.57
2024-01-15T00:34:37.379Z,93.17
2024-01-15T00:35:09.521Z,92.57
2024-01-15T00:35:42.107Z,90.63
2024-01-15T00:36:15.510Z,91.87
2024-01-15T00:36:47.445Z,93.03
2024-01-15T00:37:19.243Z,92.10
2024-01-15T00:37:51.027Z,92.03
2024-01-15T00:38:22.883Z,94.50
2024-01-15T00:38:55.124Z,93.63
2024-01-15T00:39:27.601Z,93.17
2024-01-15T00:39:59.438Z,93.67
2024-01-15T00:40:31.201Z,93.80
2024-01-15T00:41:03.992Z,92.00
2024-01-15T00:41:35.765Z,91.73
2024-01-15T00:42:07.692Z,90.47
2024-01-15T00:42:39.650Z,91.53
2024-01-15T00:43:11.541Z,91.67
2024-01-15T00:43:43.338Z,89.57
2024-01-15T00:44:15.188Z,88.10
2024-01-15T00:44:47.007Z,88.87
2024-01-15T00:45:19.063Z,95.37
2024-01-15T00:45:51.018Z,127.17
2024-01-15T00:46:23.121Z,162.23
2024-01-15T00:46:54.940Z,170.97
2024-01-15T00:47:27.244Z,129.33
2024-01-15T00:48:00.742Z,103.23
2024-01-15T00:48:33.191Z,95.53
2024-01-15T00:49:05.372Z,92.30
2024-01-15T00:49:37.292Z,88.33
2024-01-15T00:50:09.634Z,87.20
2024-01-15T00:50:41.402Z,85.83
2024-01-15T00:51:13.278Z,84.57
2024-01-15T00:51:45.236Z,84.30
2024-01-15T00:52:17.159Z,82.27
2024-01-15T00:52:48.968Z,82.20
2024-01-15T00:53:23.164Z,84.60
2024-01-15T00:53:55.015Z,86.17
2024-01-15T00:54:27.615Z,85.90
2024-01-15T00:54:59.502Z,84.77
2024-01-15T00:55:31.324Z,86.40
2024-01-15T00:56:04.231Z,85.00
2024-01-15T00:56:36.156Z,85.83
2024-01-15T00:57:08.039Z,85.67
2024-01-15T00:57:41.467Z,85.73
2024-01-15T00:58:13.327Z,86.70
2024-01-15T00:58:45.125Z,85.93
2024-01-15T00:59:17.006Z,84.53
2024-01-15T00:59:49.357Z,86.00
2024-01-15T01:00:21.378Z,84.93
2024-01-15T01:00:53.379Z,85.50
2024-01-15T01:01:25.325Z,84.63
2024-01-15T01:01:57.338Z,86.07
2024-01-15T01:02:29.180Z,85.27
2024-01-15T01:03:01.099Z,84.77
2024-01-15T01:03:33.057Z,85.20
2024-01-15T01:04:05.238Z,87.03
2024-01-15T01:04:37.175Z,87.33
2024-01-15T01:05:09.044Z,87.47
2024-01-15T01:05:41.061Z,87.77
2024-01-15T01:06:12.933Z,88.70
2024-01-15T01:06:44.843Z,87.60
2024-01-15T01:07:16.773Z,87.97
2024-01-15T01:07:48.602Z,88.10
2024-01-15T01:08:20.379Z,88.10
2024-01-15T01:08:52.198Z,87.57
2024-01-15T01:09:24.088Z,87.43
2024-01-15T01:09:56.589Z,88.30
2024-01-15T01:10:28.938Z,89.27
2024-01-15T01:11:00.832Z,88.77
2024-01-15T01:11:32.606Z,86.43
2024-01-15T01:12:04.632Z,87.80
2024-01-15T01:12:36.483Z,88.03
2024-01-15T01:13:08.379Z,89.83
2024-01-15T01:13:40.338Z,89.83
2024-01-15T01:14:12.157Z,91.33
2024-01-15T01:14:43.982Z,91.13
2024-01-15T01:15:15.844Z,90.23
2024-01-15T01:15:47.761Z,91.57
2024-01-15T01:16:19.569Z,91.37
2024-01-15T01:16:51.345Z,92.67
2024-01-15T01:17:23.924Z,92.97
2024-01-15T01:17:56.076Z,95.13
2024-01-15T01:18:28.204Z,94.03
2024-01-15T01:19:00.217Z,91.77
2024-01-15T01:19:32.663Z,92.87
2024-01-15T01:20:07.337Z,94.43
2024-01-15T01:20:39.451Z,92.00
2024-01-15T01:21:11.448Z,92.50
2024-01-15T01:21:43.310Z,93.83
2024-01-15T01:22:15.149Z,94.20
2024-01-15T01:22:47.008Z,94.37
2024-01-15T01:23:19.080Z,96.13
2024-01-15T01:23:50.876Z,99.20
2024-01-15T01:24:22.755Z,101.77
2024-01-15T01:24:54.617Z,99.57
2024-01-15T01:25:26.433Z,97.27
2024-01-15T01:25:58.321Z,96.53
2024-01-15T01:26:30.122Z,94.73
2024-01-15T01:27:01.981Z,94.63
2024-01-15T01:27:33.970Z,94.57
2024-01-15T01:28:05.906Z,95.10
2024-01-15T01:28:37.772Z,94.33
2024-01-15T01:29:10.136Z,92.97
2024-01-15T01:29:41.965Z,91.53
2024-01-15T01:30:13.989Z,91.77
2024-01-15T01:30:46.033Z,88.10
2024-01-15T01:31:18.009Z,88.00
2024-01-15T01:31:50.230Z,86.93
2024-01-15T01:32:22.023Z,86.80
2024-01-15T01:32:53.839Z,86.53
2024-01-15T01:33:25.775Z,86.73
2024-01-15T01:33:57.721Z,86.20
2024-01-15T01:34:32.892Z,85.03
2024-01-15T01:35:06.452Z,85.17
2024-01-15T01:35:38.598Z,83.93
2024-01-15T01:36:10.952Z,87.73
2024-01-15T01:36:44.087Z,88.30
2024-01-15T01:37:15.951Z,86.23
2024-01-15T01:37:47.778Z,86.30
2024-01-15T01:38:19.633Z,85.40
2024-01-15T01:38:51.534Z,85.80
2024-01-15T01:39:23.877Z,85.53
2024-01-15T01:39:55.772Z,85.37
2024-01-15T01:40:27.725Z,87.10
2024-01-15T01:40:59.557Z,89.17
2024-01-15T01:41:31.353Z,90.13
2024-01-15T01:42:03.171Z,88.07
2024-01-15T01:42:35.040Z,90.60
2024-01-15T01:43:06.955Z,90.17
2024-01-15T01:43:38.739Z,88.60
2024-01-15T01:44:10.500Z,90.43
2024-01-15T01:44:42.535Z,90.57
2024-01-15T01:45:14.380Z,90.67
2024-01-15T01:45:46.399Z,89.13
2024-01-15T01:46:18.784Z,87.80
2024-01-15T01:46:50.807Z,88.60
2024-01-15T01:47:22.803Z,87.43
2024-01-15T01:47:54.858Z,87.23
2024-01-15T01:48:27.573Z,87.87
2024-01-15T01:49:02.728Z,87.23
2024-01-15T01:49:37.068Z,90.97
2024-01-15T01:50:09.527Z,90.63
2024-01-15T01:50:41.477Z,91.17
2024-01-15T01:51:13.398Z,88.37
2024-01-15T01:51:46.116Z,89.10
2024-01-15T01:52:17.917Z,88.50
2024-01-15T01:52:50.368Z,86.93
2024-01-15T01:53:23.259Z,89.30
2024-01-15T01:53:55.115Z,89.00
2024-01-15T01:54:32.456Z,89.53
2024-01-15T01:55:07.202Z,88.67
2024-01-15T01:55:40.263Z,88.33
2024-01-15T01:56:12.985Z,90.17
2024-01-15T01:56:44.993Z,90.43
2024-01-15T01:57:19.085Z,88.27
2024-01-15T01:57:52.259Z,87.60
2024-01-15T01:58:24.303Z,90.53
2024-01-15T01:58:56.363Z,90.07
2024-01-15T01:59:28.816Z,88.37
2024-01-15T02:00:01.337Z,87.23
2024-01-15T02:00:36.301Z,86.17
2024-01-15T02:01:08.769Z,87.83
2024-01-15T02:01:42.136Z,89.23
2024-01-15T02:02:14.814Z,89.83
2024-01-15T02:02:46.694Z,88.77
2024-01-15T02:03:18.614Z,87.07
2024-01-15T02:03:50.635Z,89.97
2024-01-15T02:04:25.657Z,93.23
2024-01-15T02:04:57.690Z,93.00
2024-01-15T02:05:31.331Z,92.80
2024-01-15T02:06:03.141Z,91.93
2024-01-15T02:06:35.345Z,92.40
2024-01-15T02:07:07.483Z,89.70
2024-01-15T02:07:39.638Z,90.33
2024-01-15T02:08:11.475Z,92.53
2024-01-15T02:08:45.055Z,92.00
2024-01-15T02:09:16.917Z,93.37
2024-01-15T02:09:49.046Z,91.37
2024-01-15T02:10:21.049Z,91.47
2024-01-15T02:10:52.822Z,91.70
2024-01-15T02:11:24.931Z,91.50
2024-01-15T02:11:57.198Z,89.63
2024-01-15T02:12:29.064Z,89.20
2024-01-15T02:13:01.072Z,90.53
2024-01-15T02:13:32.886Z,90.50
2024-01-15T02:14:04.760Z,89.00
2024-01-15T02:14:36.533Z,89.67
2024-01-15T02:15:08.768Z,90.20
2024-01-15T02:15:41.355Z,90.40
2024-01-15T02:16:13.139Z,91.43
2024-01-15T02:16:44.966Z,93.77
2024-01-15T02:17:16.845Z,93.90
2024-01-15T02:18:02.986Z,94.47
2024-01-15T02:18:45.579Z,95.37
2024-01-15T02:19:18.506Z,96.00
2024-01-15T02:19:51.591Z,103.13
2024-01-15T02:20:23.656Z,106.07
2024-01-15T02:20:55.897Z,111.43
2024-01-15T02:21:29.845Z,112.87
2024-01-15T02:22:01.719Z,112.47
2024-01-15T02:22:33.581Z,110.20
2024-01-15T02:23:11.991Z,116.33
2024-01-15T02:23:43.848Z,115.43
2024-01-15T02:24:15.749Z,113.83
2024-01-15T02:24:47.652Z,110.60
2024-01-15T02:25:20.544Z,107.13
2024-01-15T02:25:52.607Z,104.20
2024-01-15T02:26:24.621Z,100.43
2024-01-15T02:26:56.442Z,102.07
2024-01-15T02:27:28.294Z,99.57
2024-01-15T02:28:00.178Z,98.00
2024-01-15T02:28:33.602Z,96.67
2024-01-15T02:29:08.051Z,98.57
2024-01-15T02:29:40.463Z,94.60
2024-01-15T02:30:15.206Z,94.70
2024-01-15T02:30:47.237Z,95.37
2024-01-15T02:31:19.384Z,94.13
2024-01-15T02:31:51.308Z,93.70
2024-01-15T02:32:23.126Z,92.87
2024-01-15T02:32:55.011Z,94.07
2024-01-15T02:33:26.970Z,93.60
2024-01-15T02:33:59.168Z,93.97
2024-01-15T02:34:36.147Z,93.27
2024-01-15T02:35:08.228Z,94.60
2024-01-15T02:35:40.328Z,91.57
2024-01-15T02:36:12.198Z,92.50
2024-01-15T02:36:44.184Z,92.43
2024-01-15T02:37:16.047Z,92.37
2024-01-15T02:37:47.888Z,90.23
2024-01-15T02:38:20.251Z,90.43
2024-01-15T02:38:52.056Z,91.13
2024-01-15T02:39:23.955Z,92.13
2024-01-15T02:39:55.981Z,89.03
2024-01-15T02:40:27.744Z,88.63
2024-01-15T02:41:00.022Z,90.50
2024-01-15T02:41:31.835Z,89.27
2024-01-15T02:42:03.705Z,88.57
2024-01-15T02:42:35.963Z,91.27
2024-01-15T02:43:07.791Z,93.17
2024-01-15T02:43:39.583Z,94.10
2024-01-15T02:44:11.441Z,93.63
2024-01-15T02:44:43.304Z,91.33
2024-01-15T02:45:15.156Z,91.27
2024-01-15T02:45:48.076Z,89.80
2024-01-15T02:46:20.048Z,89.13
2024-01-15T02:46:52.288Z,90.23
2024-01-15T02:47:24.058Z,90.33
2024-01-15T02:47:55.968Z,87.17
2024-01-15T02:48:27.976Z,88.00
2024-01-15T02:49:00.050Z,88.73
2024-01-15T02:49:33.629Z,88.50
2024-01-15T02:50:06.330Z,86.40
2024-01-15T02:50:38.154Z,86.33
2024-01-15T02:51:10.131Z,85.40
2024-01-15T02:51:42.086Z,84.57
2024-01-15T02:52:13.922Z,84.87
2024-01-15T02:52:45.689Z,83.10
2024-01-15T02:53:17.526Z,82.83
2024-01-15T02:53:51.454Z,82.17
2024-01-15T02:54:23.390Z,80.17
2024-01-15T02:54:55.255Z,80.60
2024-01-15T02:55:27.091Z,80.77
2024-01-15T02:55:58.891Z,80.33
2024-01-15T02:56:30.660Z,81.57
2024-01-15T02:57:02.529Z,82.10
2024-01-15T02:57:34.687Z,80.17
2024-01-15T02:58:06.543Z,78.60
2024-01-15T02:58:38.326Z,78.50
2024-01-15T02:59:10.118Z,78.43
2024-01-15T02:59:41.962Z,79.63
2024-01-15T03:00:14.101Z,79.80
2024-01-15T03:00:47.438Z,79.97
2024-01-15T03:01:23.193Z,79.50
2024-01-15T03:01:55.140Z,80.30
2024-01-15T03:02:27.060Z,78.43
2024-01-15T03:02:58.988Z,76.73
2024-01-15T03:03:30.926Z,77.80
2024-01-15T03:04:02.961Z,77.93
2024-01-15T03:04:34.914Z,78.83
2024-01-15T03:05:08.784Z,77.67
2024-01-15T03:05:40.708Z,77.67
2024-01-15T03:06:12.701Z,75.43
2024-01-15T03:06:44.638Z,76.10
2024-01-15T03:07:16.973Z,77.70
2024-01-15T03:07:49.245Z,77.47
2024-01-15T03:08:21.076Z,77.37
2024-01-15T03:08:52.923Z,76.63
2024-01-15T03:09:24.938Z,78.23
2024-01-15T03:09:56.826Z,77.70
2024-01-15T03:10:28.674Z,76.43
2024-01-15T03:11:00.542Z,77.77
2024-01-15T03:11:39.116Z,78.87
2024-01-15T03:12:12.189Z,77.33
2024-01-15T03:12:44.265Z,77.20
2024-01-15T03:13:16.233Z,77.93
2024-01-15T03:13:48.058Z,78.97
2024-01-15T03:14:19.935Z,78.77
2024-01-15T03:14:51.787Z,78.27
2024-01-15T03:15:23.618Z,79.43
2024-01-15T03:15:55.986Z,77.70
2024-01-15T03:16:27.872Z,77.47
2024-01-15T03:16:59.816Z,77.10
2024-01-15T03:17:31.694Z,78.40
2024-01-15T03:18:03.604Z,79.43
2024-01-15T03:18:35.732Z,77.93
2024-01-15T03:19:07.729Z,81.60
2024-01-15T03:19:39.721Z,80.87
2024-01-15T03:20:12.189Z,79.60
2024-01-15T03:20:43.983Z,80.43
2024-01-15T03:21:15.813Z,78.00
2024-01-15T03:21:47.717Z,77.77
2024-01-15T03:22:19.574Z,78.40
2024-01-15T03:22:51.328Z,79.73
2024-01-15T03:23:23.082Z,80.93
2024-01-15T03:23:54.976Z,80.67
2024-01-15T03:24:26.774Z,81.10
2024-01-15T03:24:59.315Z,83.97
2024-01-15T03:25:31.135Z,84.47
2024-01-15T03:26:02.982Z,85.90
2024-01-15T03:26:34.811Z,87.37
2024-01-15T03:27:06.905Z,86.70
2024-01-15T03:27:38.795Z,86.40
2024-01-15T03:28:10.666Z,83.57
2024-01-15T03:28:42.437Z,81.87
2024-01-15T03:29:14.230Z,78.50
2024-01-15T03:29:45.992Z,77.70
2024-01-15T03:30:17.943Z,76.67
2024-01-15T03:30:49.888Z,76.23
2024-01-15T03:31:21.820Z,76.53
2024-01-15T03:31:53.854Z,78.03
2024-01-15T03:32:25.714Z,77.17
2024-01-15T03:32:57.571Z,76.40
2024-01-15T03:33:29.572Z,76.07
2024-01-15T03:34:01.645Z,75.63
2024-01-15T03:34:33.643Z,75.43
2024-01-15T03:35:05.880Z,76.50
2024-01-15T03:35:37.794Z,74.80
2024-01-15T03:36:10.139Z,75.13
2024-01-15T03:36:42.054Z,76.03
2024-01-15T03:37:13.901Z,75.83
2024-01-15T03:37:45.802Z,74.10
2024-01-15T03:38:17.624Z,74.20
2024-01-15T03:38:49.385Z,74.43
2024-01-15T03:39:21.256Z,74.17
2024-01-15T03:39:53.214Z,75.43
2024-01-15T03:40:25.299Z,76.90
2024-01-15T03:40:57.137Z,76.73
2024-01-15T03:41:29.215Z,76.23
2024-01-15T03:42:00.989Z,77.23
2024-01-15T03:42:32.904Z,76.47
2024-01-15T03:43:05.020Z,77.33
2024-01-15T03:43:36.839Z,78.80
2024-01-15T03:44:08.673Z,80.20
2024-01-15T03:44:40.527Z,79.73
2024-01-15T03:45:12.371Z,79.27
2024-01-15T03:45:44.242Z,78.47
2024-01-15T03:46:16.029Z,81.07
2024-01-15T03:46:47.777Z,82.73
2024-01-15T03:47:19.557Z,83.23
2024-01-15T03:47:51.578Z,82.30
2024-01-15T03:48:23.687Z,79.93
2024-01-15T03:48:55.707Z,85.60
2024-01-15T03:49:27.733Z,87.47
2024-01-15T03:49:59.641Z,87.30
2024-01-15T03:50:31.415Z,87.77
2024-01-15T03:51:03.311Z,89.13
2024-01-15T03:51:35.247Z,91.20
2024-01-15T03:52:07.047Z,94.53
2024-01-15T03:52:38.988Z,97.43
2024-01-15T03:53:10.759Z,106.93
2024-01-15T03:53:42.556Z,113.37
2024-01-15T03:54:15.313Z,110.20
2024-01-15T03:54:48.472Z,106.73
2024-01-15T03:55:20.434Z,107.23
2024-01-15T03:55:52.760Z,106.30
2024-01-15T03:56:24.634Z,105.43
2024-01-15T03:56:56.483Z,104.00
2024-01-15T03:57:28.381Z,102.63
2024-01-15T03:58:00.378Z,100.67
2024-01-15T03:58:32.312Z,101.43
2024-01-15T03:59:04.146Z,98.70
2024-01-15T03:59:36.045Z,93.47
2024-01-15T04:00:08.866Z,92.17
2024-01-15T04:00:40.771Z,93.03
2024-01-15T04:01:13.286Z,95.03
2024-01-15T04:01:54.414Z,94.93
2024-01-15T04:02:26.222Z,95.43
2024-01-15T04:02:57.994Z,95.67
2024-01-15T04:03:29.986Z,94.10
2024-01-15T04:04:01.936Z,92.37
2024-01-15T04:04:33.911Z,92.47
2024-01-15T04:05:06.093Z,90.80
2024-01-15T04:05:37.942Z,91.77
2024-01-15T04:06:09.825Z,88.63
2024-01-15T04:06:41.754Z,87.17
2024-01-15T04:07:13.796Z,88.27
2024-01-15T04:07:45.711Z,87.50
2024-01-15T04:08:17.527Z,87.40
2024-01-15T04:08:49.407Z,84.30
2024-01-15T04:09:21.265Z,84.23
2024-01-15T04:09:53.249Z,88.13
2024-01-15T04:10:25.278Z,113.63
2024-01-15T04:10:57.186Z,145.63
2024-01-15T04:11:29.030Z,210.67
2024-01-15T04:12:00.834Z,256.90
2024-01-15T04:12:32.752Z,199.17
2024-01-15T04:13:04.803Z,144.03
2024-01-15T04:13:37.383Z,122.30
2024-01-15T04:14:10.113Z,112.30
2024-01-15T04:14:41.937Z,105.87
2024-01-15T04:15:13.996Z,102.33
2024-01-15T04:15:45.886Z,102.27
2024-01-15T04:16:17.760Z,104.40
2024-01-15T04:16:49.620Z,105.33
2024-01-15T04:17:22.938Z,105.73
2024-01-15T04:17:54.984Z,101.97
2024-01-15T04:18:26.860Z,97.30
2024-01-15T04:18:59.441Z,93.07
2024-01-15T04:19:31.351Z,94.37
2024-01-15T04:20:03.163Z,92.50
2024-01-15T04:20:34.913Z,89.43
2024-01-15T04:21:07.599Z,89.73
2024-01-15T04:21:39.820Z,88.83
2024-01-15T04:22:11.691Z,86.80
2024-01-15T04:22:45.086Z,85.50
2024-01-15T04:23:16.954Z,87.30
2024-01-15T04:23:48.716Z,85.43
2024-01-15T04:24:20.504Z,85.37
2024-01-15T04:24:52.391Z,88.40
2024-01-15T04:25:24.279Z,87.93
2024-01-15T04:25:56.165Z,85.67
2024-01-15T04:26:28.015Z,83.77
2024-01-15T04:27:00.057Z,82.70
2024-01-15T04:27:31.980Z,82.77
2024-01-15T04:28:03.898Z,79.43
2024-01-15T04:28:35.713Z,78.00
2024-01-15T04:29:07.650Z,77.17
2024-01-15T04:29:41.680Z,78.60
2024-01-15T04:30:14.257Z,76.60
2024-01-15T04:30:46.232Z,75.63
2024-01-15T04:31:28.416Z,74.83
2024-01-15T04:32:00.601Z,74.33
2024-01-15T04:32:32.493Z,74.27
2024-01-15T04:33:04.583Z,75.13
2024-01-15T04:33:36.736Z,75.97
2024-01-15T04:34:08.724Z,79.33
2024-01-15T04:34:40.740Z,79.63
2024-01-15T04:35:13.821Z,79.47
2024-01-15T04:35:45.656Z,76.87
2024-01-15T04:36:17.588Z,76.67
2024-01-15T04:36:49.742Z,76.77
2024-01-15T04:37:21.666Z,76.57
2024-01-15T04:37:53.981Z,77.03
2024-01-15T04:38:25.809Z,73.53
2024-01-15T04:38:57.581Z,75.23
2024-01-15T04:39:30.862Z,75.40
2024-01-15T04:40:05.166Z,74.33
2024-01-15T04:40:37.088Z,73.90
2024-01-15T04:41:14.885Z,74.20
2024-01-15T04:41:46.733Z,74.60
2024-01-15T04:42:18.569Z,75.77
2024-01-15T04:42:50.468Z,74.83
2024-01-15T04:43:22.429Z,74.50
2024-01-15T04:43:54.250Z,76.07
2024-01-15T04:44:26.078Z,74.00
2024-01-15T04:44:57.988Z,73.30
2024-01-15T04:45:30.174Z,73.90
2024-01-15T04:46:02.118Z,74.93
2024-01-15T04:46:33.918Z,76.13
2024-01-15T04:47:05.715Z,75.50
2024-01-15T04:47:38.071Z,74.27
2024-01-15T04:48:10.012Z,75.67
2024-01-15T04:48:41.920Z,77.30
2024-01-15T04:49:14.147Z,76.30
2024-01-15T04:49:46.135Z,74.83
2024-01-15T04:50:18.010Z,75.57
2024-01-15T04:50:49.822Z,75.93
2024-01-15T04:51:21.721Z,76.03
2024-01-15T04:51:53.592Z,75.47
2024-01-15T04:52:25.529Z,74.83
2024-01-15T04:52:57.336Z,74.40
2024-01-15T04:53:29.197Z,76.83
2024-01-15T04:54:01.002Z,80.27
2024-01-15T04:54:32.899Z,82.30
2024-01-15T04:55:04.894Z,81.80
2024-01-15T04:55:36.674Z,81.43
2024-01-15T04:56:08.601Z,84.03
2024-01-15T04:56:40.837Z,85.60
2024-01-15T04:57:12.787Z,85.70
2024-01-15T04:57:45.104Z,84.37
2024-01-15T04:58:17.027Z,87.60
2024-01-15T04:58:48.841Z,85.43
2024-01-15T04:59:20.645Z,84.80
2024-01-15T04:59:52.493Z,84.63
2024-01-15T05:00:24.354Z,84.03
2024-01-15T05:00:56.293Z,82.47
2024-01-15T05:01:32.735Z,82.27
2024-01-15T05:02:04.589Z,81.30
2024-01-15T05:02:36.486Z,81.13
2024-01-15T05:03:08.384Z,80.03
2024-01-15T05:03:40.460Z,81.30
2024-01-15T05:04:12.539Z,81.60
2024-01-15T05:04:44.454Z,83.40
2024-01-15T05:05:16.809Z,84.33
2024-01-15T05:05:48.741Z,88.33
2024-01-15T05:06:20.654Z,88.87
2024-01-15T05:06:52.602Z,85.17
2024-01-15T05:07:24.592Z,82.83
2024-01-15T05:07:56.470Z,82.67
2024-01-15T05:08:28.451Z,83.17
2024-01-15T05:09:00.671Z,87.10
2024-01-15T05:09:33.256Z,89.17
2024-01-15T05:10:05.755Z,89.73
2024-01-15T05:10:37.768Z,90.30
2024-01-15T05:11:09.621Z,86.77
2024-01-15T05:11:41.462Z,82.47
2024-01-15T05:12:13.499Z,80.13
2024-01-15T05:12:45.464Z,78.47
2024-01-15T05:13:17.329Z,79.77
2024-01-15T05:13:49.348Z,81.27
2024-01-15T05:14:21.122Z,81.40
2024-01-15T05:14:52.944Z,82.97
2024-01-15T05:15:24.801Z,85.73
2024-01-15T05:15:56.933Z,88.40
2024-01-15T05:16:28.796Z,90.80
2024-01-15T05:17:00.591Z,91.73
2024-01-15T05:17:32.414Z,90.57
2024-01-15T05:18:04.355Z,91.77
2024-01-15T05:18:38.437Z,87.93
2024-01-15T05:19:10.414Z,87.37
2024-01-15T05:19:42.372Z,90.10
2024-01-15T05:20:14.405Z,89.13
2024-01-15T05:20:46.355Z,88.50
2024-01-15T05:21:18.218Z,87.67
2024-01-15T05:21:50.139Z,86.53
2024-01-15T05:22:22.358Z,84.23
2024-01-15T05:22:54.175Z,82.03
2024-01-15T05:23:26.086Z,82.23
2024-01-15T05:23:57.856Z,85.30
2024-01-15T05:24:29.686Z,84.33
2024-01-15T05:25:01.567Z,83.40
2024-01-15T05:25:33.420Z,85.27
2024-01-15T05:26:05.365Z,84.17
2024-01-15T05:26:37.240Z,84.60
2024-01-15T05:27:09.084Z,84.93
2024-01-15T05:27:40.988Z,82.50
2024-01-15T05:28:13.003Z,82.27
2024-01-15T05:28:44.838Z,84.40
2024-01-15T05:29:16.652Z,82.30
2024-01-15T05:29:48.468Z,82.77
2024-01-15T05:30:20.363Z,81.20
2024-01-15T05:30:52.582Z,79.40
2024-01-15T05:31:24.572Z,78.73
2024-01-15T05:31:58.255Z,79.37
2024-01-15T05:32:31.986Z,79.13
2024-01-15T05:33:04.425Z,77.87
2024-01-15T05:33:36.313Z,77.70
2024-01-15T05:34:08.248Z,77.43
2024-01-15T05:34:40.583Z,75.50
2024-01-15T05:35:12.452Z,74.60
2024-01-15T05:35:44.415Z,72.47
2024-01-15T05:36:16.250Z,75.03
2024-01-15T05:36:49.227Z,73.17
2024-01-15T05:37:21.174Z,73.97
2024-01-15T05:37:52.950Z,71.90
2024-01-15T05:38:24.874Z,71.40
2024-01-15T05:38:56.736Z,72.70
2024-01-15T05:39:28.636Z,72.20
2024-01-15T05:40:00.622Z,73.97
2024-01-15T05:40:32.680Z,73.63
2024-01-15T05:41:04.596Z,73.03
2024-01-15T05:41:36.416Z,73.10
2024-01-15T05:42:08.221Z,73.40
2024-01-15T05:42:41.015Z,73.27
2024-01-15T05:43:12.879Z,72.90
2024-01-15T05:43:44.702Z,72.87
2024-01-15T05:44:16.549Z,72.70
2024-01-15T05:44:48.389Z,71.47
2024-01-15T05:45:20.264Z,72.20
2024-01-15T05:45:52.334Z,71.97
2024-01-15T05:46:24.241Z,72.27
2024-01-15T05:46:56.038Z,70.67
2024-01-15T05:47:27.933Z,70.67
2024-01-15T05:47:59.887Z,70.70
2024-01-15T05:48:31.962Z,71.73
2024-01-15T05:49:03.908Z,72.90
2024-01-15T05:49:35.919Z,72.00
2024-01-15T05:50:08.160Z,71.50
2024-01-15T05:50:40.057Z,71.30
2024-01-15T05:51:11.898Z,70.47
2024-01-15T05:51:43.805Z,71.67
2024-01-15T05:52:15.771Z,72.00
2024-01-15T05:52:47.687Z,70.97
2024-01-15T05:53:19.471Z,70.63
2024-01-15T05:53:52.675Z,72.17
2024-01-15T05:54:24.925Z,72.00
2024-01-15T05:54:56.745Z,71.67
2024-01-15T05:55:28.553Z,71.40
2024-01-15T05:56:00.613Z,71.57
2024-01-15T05:56:32.461Z,72.60
2024-01-15T05:57:04.488Z,72.77
2024-01-15T05:57:36.315Z,69.87
2024-01-15T05:58:08.172Z,72.20
2024-01-15T05:58:39.930Z,72.87
2024-01-15T05:59:15.110Z,74.17
2024-01-15T05:59:47.804Z,72.27
2024-01-15T06:00:19.959Z,73.10
2024-01-15T06:00:52.009Z,71.03
2024-01-15T06:01:23.987Z,73.93
2024-01-15T06:01:56.103Z,74.57
2024-01-15T06:02:27.939Z,74.20
2024-01-15T06:03:00.568Z,74.03
2024-01-15T06:03:32.627Z,73.57
2024-01-15T06:04:04.810Z,73.80
2024-01-15T06:04:36.834Z,73.00
2024-01-15T06:05:08.674Z,72.80
2024-01-15T06:05:40.940Z,72.43
2024-01-15T06:06:13.041Z,73.47
2024-01-15T06:06:44.889Z,74.43
2024-01-15T06:07:20.638Z,72.83
2024-01-15T06:07:55.200Z,73.47
2024-01-15T06:08:40.287Z,71.77
2024-01-15T06:09:18.204Z,74.90
2024-01-15T06:09:50.412Z,72.67
2024-01-15T06:10:22.413Z,71.23
2024-01-15T06:10:54.345Z,73.27
2024-01-15T06:11:31.158Z,71.97
2024-01-15T06:12:02.917Z,74.77
2024-01-15T06:12:35.025Z,75.40
2024-01-15T06:13:06.966Z,74.13
2024-01-15T06:13:38.820Z,74.60
2024-01-15T06:14:10.631Z,71.53
2024-01-15T06:14:43.755Z,72.73
2024-01-15T06:15:15.599Z,72.63
2024-01-15T06:15:47.547Z,72.77
2024-01-15T06:16:21.270Z,70.87
2024-01-15T06:16:53.876Z,71.60
2024-01-15T06:17:25.768Z,70.53
2024-01-15T06:17:57.673Z,71.57
2024-01-15T06:18:29.643Z,72.37
2024-01-15T06:19:01.719Z,71.03
2024-01-15T06:19:33.785Z,72.27
2024-01-15T06:20:06.742Z,72.10
2024-01-15T06:20:39.398Z,71.43
2024-01-15T06:21:13.940Z,72.10
2024-01-15T06:21:45.908Z,72.73
2024-01-15T06:22:17.739Z,72.00
2024-01-15T06:22:49.501Z,72.23
2024-01-15T06:23:21.725Z,70.43
2024-01-15T06:23:53.733Z,71.57
2024-01-15T06:24:25.683Z,71.17
2024-01-15T06:24:57.649Z,72.03
2024-01-15T06:25:29.612Z,71.67
2024-01-15T06:26:01.450Z,70.00
2024-01-15T06:26:33.289Z,69.73
2024-01-15T06:27:05.274Z,72.50
2024-01-15T06:27:37.202Z,72.70
2024-01-15T06:28:09.043Z,72.47
2024-01-15T06:28:40.942Z,75.07
2024-01-15T06:29:12.866Z,74.20
2024-01-15T06:29:51.109Z,74.73
2024-01-15T06:30:23.516Z,74.10
2024-01-15T06:30:55.697Z,73.17
2024-01-15T06:31:27.777Z,74.40
2024-01-15T06:31:59.777Z,74.17
2024-01-15T06:32:31.730Z,78.57
2024-01-15T06:33:03.761Z,81.80
2024-01-15T06:33:35.695Z,79.67
2024-01-15T06:34:07.746Z,79.97
2024-01-15T06:34:39.704Z,79.23
2024-01-15T06:35:12.823Z,78.50
2024-01-15T06:35:44.784Z,78.20
2024-01-15T06:36:17.525Z,77.67
2024-01-15T06:36:49.474Z,79.83
2024-01-15T06:37:21.538Z,80.07
2024-01-15T06:37:53.380Z,78.73
2024-01-15T06:38:26.208Z,77.87
2024-01-15T06:38:58.042Z,75.60
2024-01-15T06:39:29.862Z,77.40
2024-01-15T06:40:01.829Z,76.47
2024-01-15T06:40:33.696Z,74.70
2024-01-15T06:41:05.526Z,73.43
2024-01-15T06:41:44.908Z,74.20
2024-01-15T06:42:16.945Z,73.03
2024-01-15T06:42:48.832Z,71.83
2024-01-15T06:43:20.657Z,71.43
2024-01-15T06:43:52.428Z,72.23
2024-01-15T06:44:24.373Z,73.67
2024-01-15T06:44:56.279Z,71.67
2024-01-15T06:45:28.193Z,71.77
2024-01-15T06:46:02.082Z,69.93
2024-01-15T06:46:36.171Z,71.00
2024-01-15T06:47:08.015Z,71.47
2024-01-15T06:47:40.150Z,69.83
2024-01-15T06:48:15.445Z,70.23
2024-01-15T06:48:47.355Z,70.50
2024-01-15T06:49:19.410Z,71.30
2024-01-15T06:49:53.077Z,71.17
2024-01-15T06:50:25.401Z,71.57
2024-01-15T06:50:57.493Z,74.07
2024-01-15T06:51:30.691Z,73.60
2024-01-15T06:52:02.690Z,73.00
2024-01-15T06:52:34.513Z,72.00
2024-01-15T06:53:06.373Z,71.77
2024-01-15T06:53:38.886Z,71.43
2024-01-15T06:54:13.494Z,71.47
2024-01-15T06:54:45.426Z,71.43